Time;durP1;ratioP1;P1;durP2;ratioP2;P2;SDS_P1;SDS_P2;PMS_P1;PMS_P2;Temp;Humidity;BMP_temperature;BMP_pressure;BME280_temperature;BME280_humidity;BME280_pressure;Samples;Min_cycle;Max_cycle;Signal;HPM_P1;HPM_P2
2022/11/03 00:01:53;;;;;;;0.98;0.38;;;20.00;47.90;;;;;;4052597;29;20910;-49
2022/11/03 00:04:17;;;;;;;0.68;0.32;;;20.10;47.90;;;;;;4053561;29;20573;-46
2022/11/03 00:06:41;;;;;;;0.20;0.20;;;20.10;47.90;;;;;;4055985;29;20103;-50
2022/11/03 00:09:06;;;;;;;0.45;0.30;;;20.20;47.80;;;;;;4056895;29;20511;-47
2022/11/03 00:11:29;;;;;;;0.57;0.40;;;20.20;47.90;;;;;;4051702;29;20032;-51
2022/11/03 00:13:51;;;;;;;1.27;0.30;;;20.20;47.70;;;;;;4055492;29;20047;-47
2022/11/03 00:16:14;;;;;;;0.30;0.30;;;20.30;47.70;;;;;;4056451;29;20044;-45
2022/11/03 00:18:37;;;;;;;0.35;0.30;;;20.30;47.70;;;;;;4056444;29;20044;-47
2022/11/03 00:21:11;;;;;;;0.50;0.30;;;20.30;47.60;;;;;;4053943;29;20051;-48
2022/11/03 00:23:36;;;;;;;0.30;0.30;;;20.30;47.50;;;;;;4054484;29;20040;-49
2022/11/03 00:26:07;;;;;;;0.20;0.20;;;20.40;47.60;;;;;;4055376;29;20059;-53
2022/11/03 00:28:34;;;;;;;0.40;0.40;;;20.40;47.60;;;;;;4054686;29;20091;-47
2022/11/03 00:30:56;;;;;;;0.43;0.28;;;20.40;47.50;;;;;;4056342;29;20074;-45
2022/11/03 00:33:19;;;;;;;0.20;0.20;;;20.50;47.50;;;;;;4055184;29;20047;-47
2022/11/03 00:35:41;;;;;;;0.22;0.22;;;20.50;47.50;;;;;;4049981;29;20850;-45
2022/11/03 00:38:03;;;;;;;0.75;0.40;;;20.50;47.50;;;;;;4053303;29;20046;-47
2022/11/03 00:40:26;;;;;;;0.60;0.40;;;20.60;47.50;;;;;;4050371;29;20048;-47
2022/11/03 00:42:49;;;;;;;3.95;0.47;;;20.60;47.40;;;;;;4051499;29;20039;-46
2022/11/03 00:45:11;;;;;;;0.35;0.30;;;20.60;47.30;;;;;;4048811;29;20163;-52
2022/11/03 00:48:28;;;;;;;3.15;0.50;;;20.70;47.30;;;;;;4052939;29;20408;-52
2022/11/03 00:50:16;;;;;;;1.48;0.30;;;20.70;47.40;;;;;;4049545;29;20489;-52
2022/11/03 00:52:38;;;;;;;1.00;0.30;;;20.70;47.30;;;;;;4049942;29;20036;-48
2022/11/03 00:55:01;;;;;;;1.65;0.60;;;20.70;47.40;;;;;;4053433;29;20519;-48
2022/11/03 00:57:23;;;;;;;15.40;1.63;;;20.70;47.40;;;;;;4047679;29;20460;-49
2022/11/03 00:59:46;;;;;;;0.52;0.40;;;20.70;47.60;;;;;;4047852;29;20338;-46
2022/11/03 01:02:08;;;;;;;4.05;0.90;;;20.70;47.60;;;;;;4048846;29;20044;-50
2022/11/03 01:07:12;;;;;;;1.75;0.63;;;20.80;47.80;;;;;;4049085;29;20456;-47
2022/11/03 01:09:37;;;;;;;1.88;0.60;;;20.80;47.60;;;;;;4049558;29;20135;-48
2022/11/03 01:12:05;;;;;;;2.05;0.50;;;20.80;47.60;;;;;;4053705;29;20039;-54
2022/11/03 01:14:31;;;;;;;2.45;0.50;;;20.80;47.20;;;;;;4052376;29;20461;-51
2022/11/03 01:16:55;;;;;;;0.45;0.30;;;20.80;46.70;;;;;;4052681;29;20334;-48
2022/11/03 01:19:17;;;;;;;2.57;0.60;;;20.80;45.90;;;;;;4053170;29;20488;-49
2022/11/03 01:21:40;;;;;;;3.78;0.90;;;20.80;45.40;;;;;;4046170;29;20037;-50
2022/11/03 01:24:04;;;;;;;1.05;0.50;;;20.80;45.10;;;;;;4052717;29;20508;-53
2022/11/03 01:26:27;;;;;;;1.23;0.60;;;20.70;45.30;;;;;;4052780;29;20420;-51
2022/11/03 01:28:49;;;;;;;1.05;0.40;;;20.70;44.80;;;;;;4051230;29;20058;-51
2022/11/03 01:31:23;;;;;;;1.40;0.45;;;20.70;44.70;;;;;;4055120;29;20082;-51
2022/11/03 01:33:48;;;;;;;1.45;0.50;;;20.70;44.80;;;;;;4057250;29;20032;-51
2022/11/03 01:36:11;;;;;;;0.30;0.30;;;20.60;44.50;;;;;;4056280;29;20178;-50
2022/11/03 01:38:35;;;;;;;0.37;0.37;;;20.60;44.40;;;;;;4053343;29;20044;-54
2022/11/03 01:40:58;;;;;;;1.55;0.65;;;20.60;44.50;;;;;;4054735;29;20044;-53
2022/11/03 01:43:23;;;;;;;0.80;0.50;;;20.60;44.40;;;;;;4054503;29;20044;-49
2022/11/03 01:45:51;;;;;;;0.80;0.40;;;20.60;44.20;;;;;;4057214;29;20402;-51
2022/11/03 01:48:14;;;;;;;0.70;0.50;;;20.60;44.30;;;;;;4057025;29;20396;-52
2022/11/03 01:50:38;;;;;;;1.00;0.60;;;20.60;44.20;;;;;;4056358;29;20073;-52
2022/11/03 01:53:01;;;;;;;0.82;0.60;;;20.60;44.10;;;;;;4053861;29;20044;-53
2022/11/03 01:55:30;;;;;;;1.30;0.60;;;20.50;43.80;;;;;;4054681;29;20048;-55
2022/11/03 01:58:22;;;;;;;1.35;0.60;;;20.50;44.10;;;;;;4053967;29;20407;-49
2022/11/03 02:00:47;;;;;;;0.60;0.40;;;20.50;43.90;;;;;;4056700;29;20420;-49
2022/11/03 02:03:10;;;;;;;0.73;0.32;;;20.50;43.80;;;;;;4056646;29;20040;-50
2022/11/03 02:05:33;;;;;;;0.63;0.43;;;20.50;43.80;;;;;;4058630;29;20499;-53
2022/11/03 02:08:37;;;;;;;0.43;0.30;;;20.50;43.80;;;;;;4055017;29;20037;-50
2022/11/03 02:12:05;;;;;;;0.52;0.50;;;20.50;43.80;;;;;;4058157;29;20471;-52
2022/11/03 02:13:42;;;;;;;0.77;0.60;;;20.50;43.70;;;;;;4054305;29;20154;-49
2022/11/03 02:16:04;;;;;;;0.50;0.30;;;20.50;43.70;;;;;;4057687;29;20111;-46
2022/11/03 02:18:31;;;;;;;0.45;0.40;;;20.50;43.60;;;;;;4054651;29;20438;-44
2022/11/03 02:21:10;;;;;;;0.77;0.60;;;20.50;43.90;;;;;;4056268;29;20043;-42
2022/11/03 02:23:50;;;;;;;1.77;0.40;;;20.50;44.50;;;;;;4060517;29;20405;-47
2022/11/03 02:26:15;;;;;;;1.48;0.45;;;20.50;44.60;;;;;;4057808;29;20060;-42
2022/11/03 02:28:37;;;;;;;4.40;0.73;;;20.60;44.90;;;;;;4055825;29;20086;-47
2022/11/03 02:31:18;;;;;;;4.45;0.65;;;20.60;45.00;;;;;;4059098;29;20116;-46
2022/11/03 02:33:46;;;;;;;5.88;1.08;;;20.60;45.40;;;;;;4053429;29;20040;-47
2022/11/03 02:36:12;;;;;;;4.88;0.68;;;20.60;45.50;;;;;;4056644;29;20044;-43
2022/11/03 02:38:39;;;;;;;2.80;0.60;;;20.60;45.60;;;;;;4056556;29;20044;-44
2022/11/03 02:41:06;;;;;;;1.73;0.75;;;20.70;45.70;;;;;;4054478;29;20373;-45
2022/11/03 02:43:29;;;;;;;2.13;0.70;;;20.70;45.60;;;;;;4051357;29;20041;-44
2022/11/03 02:45:54;;;;;;;3.50;0.63;;;20.80;45.60;;;;;;4049617;29;20055;-43
2022/11/03 02:48:18;;;;;;;1.05;0.50;;;20.80;45.50;;;;;;4054679;29;20067;-44
2022/11/03 02:50:41;;;;;;;3.28;0.68;;;20.80;45.40;;;;;;4054693;29;20063;-45
2022/11/03 02:53:04;;;;;;;3.42;0.85;;;20.80;45.00;;;;;;4036818;29;20040;-44
2022/11/03 02:55:39;;;;;;;0.52;0.52;;;20.90;45.20;;;;;;4055280;29;20048;-44
2022/11/03 02:58:26;;;;;;;0.35;0.32;;;20.90;45.60;;;;;;4052112;29;20419;-47
2022/11/03 03:01:13;;;;;;;1.05;0.57;;;20.90;45.60;;;;;;4058437;29;20040;-45
2022/11/03 03:03:41;;;;;;;1.65;0.30;;;20.90;45.40;;;;;;4054874;29;20035;-45
2022/11/03 03:06:10;;;;;;;0.45;0.32;;;21.00;45.60;;;;;;4052797;29;20409;-46
2022/11/03 03:08:35;;;;;;;0.75;0.40;;;21.00;45.60;;;;;;4049710;29;20037;-44
2022/11/03 03:11:00;;;;;;;0.98;0.40;;;21.00;45.70;;;;;;4051085;29;20040;-47
2022/11/03 03:13:24;;;;;;;0.20;0.20;;;21.00;45.70;;;;;;4052347;29;20067;-46
2022/11/03 03:15:48;;;;;;;;;;;21.00;45.70;;;;;;4052336;29;20059;-44
2022/11/03 03:18:59;;;;;;;1.40;0.40;;;21.00;45.80;;;;;;4050828;29;19915;-46
2022/11/03 03:21:31;;;;;;;1.65;0.52;;;21.00;45.80;;;;;;4047384;29;20040;-45
2022/11/03 03:24:18;;;;;;;1.38;0.40;;;21.00;45.90;;;;;;4053562;29;20051;-43
2022/11/03 03:26:51;;;;;;;2.65;0.52;;;21.00;45.80;;;;;;4054205;29;20044;-43
2022/11/03 03:29:27;;;;;;;1.00;0.45;;;21.10;45.80;;;;;;4055579;29;20048;-44
2022/11/03 03:31:57;;;;;;;0.68;0.20;;;21.10;45.90;;;;;;4058460;29;20051;-45
2022/11/03 03:34:22;;;;;;;0.40;0.40;;;21.10;45.80;;;;;;4057104;29;20099;-44
2022/11/03 03:36:48;;;;;;;1.23;0.40;;;21.10;45.80;;;;;;4056152;29;20304;-44
2022/11/03 03:39:12;;;;;;;1.20;0.40;;;21.10;46.00;;;;;;4058634;29;20044;-43
2022/11/03 03:41:35;;;;;;;;;;;21.10;45.90;;;;;;4056150;29;20110;-44
2022/11/03 03:44:01;;;;;;;0.32;0.30;;;21.10;46.10;;;;;;4057163;29;19911;-45
2022/11/03 03:46:32;;;;;;;0.40;0.30;;;21.10;46.00;;;;;;4054996;29;20060;-47
2022/11/03 03:48:55;;;;;;;0.45;0.40;;;21.10;46.00;;;;;;4056943;29;20036;-47
2022/11/03 03:51:22;;;;;;;0.60;0.40;;;21.10;46.00;;;;;;4056032;29;20044;-43
2022/11/03 03:53:48;;;;;;;0.47;0.30;;;21.10;46.00;;;;;;4054700;29;20042;-43
2022/11/03 03:56:11;;;;;;;0.52;0.30;;;21.10;45.90;;;;;;4056546;29;20082;-44
2022/11/03 03:58:33;;;;;;;1.10;0.50;;;21.10;45.90;;;;;;4058001;29;20559;-44
2022/11/03 04:00:56;;;;;;;0.70;0.40;;;21.10;45.90;;;;;;4052990;29;20040;-45
2022/11/03 04:03:24;;;;;;;0.40;0.40;;;21.10;46.00;;;;;;4057194;29;20032;-43
2022/11/03 04:05:47;;;;;;;0.60;0.40;;;21.10;46.10;;;;;;4055245;29;20105;-45
2022/11/03 04:08:11;;;;;;;0.33;0.20;;;21.10;46.00;;;;;;4054867;29;20068;-44
2022/11/03 04:10:33;;;;;;;2.20;0.75;;;21.20;46.00;;;;;;4053756;29;20046;-46
2022/11/03 04:23:36;;;;;;;0.77;0.35;;;21.40;45.80;;;;;;4054823;29;20469;-42
2022/11/03 04:25:59;;;;;;;0.20;0.20;;;21.40;45.80;;;;;;4056359;29;20084;-43
2022/11/03 04:28:22;;;;;;;0.73;0.30;;;21.50;45.70;;;;;;4057262;29;20040;-43
2022/11/03 04:30:44;;;;;;;1.80;0.50;;;21.60;45.70;;;;;;4055058;29;20044;-42
2022/11/03 04:33:19;;;;;;;0.35;0.25;;;21.60;45.60;;;;;;4055272;29;20437;-43
2022/11/03 04:35:43;;;;;;;;;;;21.60;45.60;;;;;;4053905;29;20518;-44
2022/11/03 04:38:22;;;;;;;1.13;0.35;;;21.70;45.60;;;;;;4056278;29;20286;-47
2022/11/03 04:40:51;;;;;;;0.98;0.30;;;21.80;45.50;;;;;;4055578;29;20112;-43
2022/11/03 04:43:15;;;;;;;0.20;0.20;;;21.80;45.50;;;;;;4056340;29;20130;-43
2022/11/03 04:45:37;;;;;;;;;;;21.90;45.80;;;;;;4056696;29;20048;-48
2022/11/03 04:48:08;;;;;;;1.45;0.40;;;21.90;45.40;;;;;;4056278;29;19923;-45
2022/11/03 04:50:31;;;;;;;0.70;0.30;;;22.00;45.60;;;;;;4055054;29;20048;-44
2022/11/03 04:53:00;;;;;;;0.47;0.35;;;22.00;45.70;;;;;;4051311;29;20037;-45
2022/11/03 04:55:22;;;;;;;1.25;0.30;;;22.10;45.60;;;;;;4047666;29;20052;-46
2022/11/03 04:57:45;;;;;;;1.50;0.38;;;22.20;45.20;;;;;;4051263;29;20127;-49
2022/11/03 05:00:20;;;;;;;1.17;0.40;;;22.30;45.10;;;;;;4047772;29;20490;-45
2022/11/03 05:02:44;;;;;;;0.20;0.20;;;22.30;44.90;;;;;;4053235;29;20100;-45
2022/11/03 05:05:26;;;;;;;2.47;0.40;;;22.30;45.30;;;;;;4055659;29;20087;-45
2022/11/03 05:07:54;;;;;;;0.35;0.30;;;22.30;45.40;;;;;;4055712;29;20127;-43
2022/11/03 05:10:20;;;;;;;0.63;0.40;;;22.30;45.10;;;;;;4050670;29;20044;-45
2022/11/03 05:12:43;;;;;;;2.65;0.45;;;22.30;45.30;;;;;;4055371;29;20099;-44
2022/11/03 05:15:26;;;;;;;0.32;0.30;;;22.20;45.20;;;;;;4053356;29;20044;-44
2022/11/03 05:17:49;;;;;;;2.50;0.30;;;22.20;45.30;;;;;;4054851;29;20140;-44
2022/11/03 05:20:28;;;;;;;0.35;0.28;;;22.20;45.40;;;;;;4053600;29;20091;-44
2022/11/03 05:22:51;;;;;;;1.33;0.30;;;22.20;45.20;;;;;;4051194;29;20047;-43
2022/11/03 05:25:49;;;;;;;0.93;0.63;;;22.20;45.20;;;;;;4053267;29;20131;-43
2022/11/03 05:28:34;;;;;;;1.02;0.43;;;22.20;45.20;;;;;;4041191;29;20480;-48
2022/11/03 05:30:57;;;;;;;1.08;0.38;;;22.10;45.20;;;;;;4050783;29;20040;-43
2022/11/03 05:33:29;;;;;;;0.43;0.40;;;22.10;45.40;;;;;;4053501;29;20036;-44
2022/11/03 05:35:52;;;;;;;2.58;0.50;;;22.10;45.40;;;;;;4056039;29;20503;-44
2022/11/03 05:38:18;;;;;;;1.10;0.43;;;22.10;45.60;;;;;;4053009;29;20040;-42
2022/11/03 05:40:41;;;;;;;0.73;0.50;;;22.10;45.90;;;;;;4054555;29;20044;-48
2022/11/03 05:43:04;;;;;;;2.20;0.55;;;22.10;45.90;;;;;;4054701;29;20028;-45
2022/11/03 05:45:34;;;;;;;0.68;0.40;;;22.00;45.90;;;;;;4053411;29;20468;-44
2022/11/03 05:47:57;;;;;;;1.38;0.95;;;22.00;46.00;;;;;;4045461;29;20051;-44
2022/11/03 05:50:25;;;;;;;1.03;0.53;;;22.00;46.50;;;;;;4053197;29;20048;-46
2022/11/03 05:52:50;;;;;;;2.58;0.60;;;22.00;46.60;;;;;;4051374;29;20044;-43
2022/11/03 05:55:29;;;;;;;1.85;0.98;;;22.00;46.90;;;;;;4048563;29;20044;-43
2022/11/03 05:57:53;;;;;;;3.65;1.08;;;22.00;47.20;;;;;;4050346;29;20051;-43
2022/11/03 06:00:38;;;;;;;;;;;22.00;47.50;;;;;;4052521;29;20108;-44
2022/11/03 06:03:01;;;;;;;4.95;2.25;;;22.00;47.30;;;;;;4054394;29;19970;-49
2022/11/03 06:05:26;;;;;;;6.53;3.03;;;22.00;47.60;;;;;;4052133;29;20520;-44
2022/11/03 06:07:50;;;;;;;5.10;3.00;;;22.00;47.80;;;;;;4049280;29;20199;-44
2022/11/03 06:10:26;;;;;;;7.28;5.07;;;22.10;47.70;;;;;;4048524;29;20072;-46
2022/11/03 06:12:48;;;;;;;9.70;8.32;;;22.10;48.20;;;;;;4048878;29;20040;-44
2022/11/03 06:15:32;;;;;;;15.35;9.32;;;22.10;48.40;;;;;;4046993;29;20048;-43
2022/11/03 06:17:55;;;;;;;19.02;10.10;;;22.20;48.30;;;;;;4048649;29;20047;-45
2022/11/03 06:20:22;;;;;;;13.15;9.80;;;22.20;48.30;;;;;;4053568;29;20051;-42
2022/11/03 06:22:44;;;;;;;11.98;9.02;;;22.30;48.40;;;;;;4055055;29;20047;-47
2022/11/03 06:25:36;;;;;;;12.25;8.02;;;22.30;48.60;;;;;;4054055;29;20067;-42
2022/11/03 06:28:20;;;;;;;12.10;7.70;;;22.40;48.70;;;;;;4052415;29;20091;-44
2022/11/03 06:30:42;;;;;;;10.55;6.22;;;22.40;48.60;;;;;;4054454;29;20052;-43
2022/11/03 06:33:20;;;;;;;9.75;6.07;;;22.40;48.60;;;;;;4051599;29;20959;-43
2022/11/03 06:35:44;;;;;;;8.15;5.85;;;22.40;48.50;;;;;;4053441;29;20059;-43
2022/11/03 06:38:21;;;;;;;6.45;5.15;;;22.40;48.60;;;;;;4052472;29;20227;-42
2022/11/03 06:40:44;;;;;;;7.57;5.32;;;22.40;48.60;;;;;;4054769;29;20047;-42
2022/11/03 06:43:26;;;;;;;6.78;4.13;;;22.40;48.70;;;;;;4052758;29;20079;-43
2022/11/03 06:45:55;;;;;;;6.72;4.07;;;22.40;48.70;;;;;;4054980;29;20614;-44
2022/11/03 06:48:33;;;;;;;5.18;4.00;;;22.50;48.80;;;;;;4052948;29;20040;-43
2022/11/03 06:50:58;;;;;;;5.65;3.65;;;22.50;48.80;;;;;;4055462;29;20067;-44
2022/11/03 06:53:33;;;;;;;7.03;3.53;;;22.50;49.00;;;;;;4053880;29;20477;-44
2022/11/03 06:55:55;;;;;;;5.97;3.25;;;22.50;49.10;;;;;;4053100;29;20047;-44
2022/11/03 06:58:32;;;;;;;5.50;2.72;;;22.50;49.10;;;;;;4054012;29;20515;-46
2022/11/03 07:00:57;;;;;;;4.50;2.80;;;22.50;49.80;;;;;;4053986;29;20074;-46
2022/11/03 07:03:36;;;;;;;5.95;2.47;;;22.60;49.20;;;;;;4055078;29;20044;-44
2022/11/03 07:06:23;;;;;;;4.30;2.95;;;22.60;49.20;;;;;;4052967;29;20053;-41
2022/11/03 07:08:50;;;;;;;4.68;2.50;;;22.60;49.20;;;;;;4053846;29;20125;-43
2022/11/03 07:11:19;;;;;;;3.88;2.80;;;22.60;49.40;;;;;;4051763;29;20576;-45
2022/11/03 07:13:42;;;;;;;2.90;1.85;;;22.70;49.40;;;;;;4056799;29;20047;-44
2022/11/03 07:16:13;;;;;;;3.60;2.00;;;22.70;49.40;;;;;;4056491;29;20127;-45
2022/11/03 07:18:43;;;;;;;4.63;2.20;;;22.70;49.30;;;;;;4054705;29;20301;-43
2022/11/03 07:21:21;;;;;;;3.97;2.10;;;22.70;49.30;;;;;;4048532;29;20044;-45
2022/11/03 07:23:44;;;;;;;4.45;1.88;;;22.70;49.20;;;;;;4050850;29;20486;-44
2022/11/03 07:26:10;;;;;;;8.10;2.28;;;22.70;49.40;;;;;;4055239;29;20431;-46
2022/11/03 07:28:38;;;;;;;23.63;2.72;;;22.70;49.30;;;;;;4054459;29;20484;-48
2022/11/03 07:31:10;;;;;;;10.90;2.50;;;22.70;49.20;;;;;;4049050;29;20362;-52
2022/11/03 07:33:32;;;;;;;14.18;2.90;;;22.70;49.70;;;;;;4051464;29;20090;-52
2022/11/03 07:35:57;;;;;;;9.27;1.30;;;22.70;49.30;;;;;;4055545;29;20072;-52
2022/11/03 07:38:21;;;;;;;4.40;1.80;;;22.70;49.20;;;;;;4055407;29;20040;-52
2022/11/03 07:40:44;;;;;;;5.88;1.58;;;22.60;48.40;;;;;;4053337;29;20115;-51
2022/11/03 07:43:17;;;;;;;3.35;1.30;;;22.60;48.30;;;;;;4057552;29;20040;-51
2022/11/03 07:45:47;;;;;;;4.63;1.50;;;22.60;48.40;;;;;;4054681;29;20112;-53
2022/11/03 07:48:44;;;;;;;2.92;1.38;;;22.50;48.40;;;;;;4056137;29;20082;-53
2022/11/03 07:51:30;;;;;;;4.75;1.15;;;22.50;48.50;;;;;;4052268;29;20051;-52
2022/11/03 07:54:23;;;;;;;4.60;1.55;;;22.40;48.60;;;;;;4053748;29;20067;-54
2022/11/03 07:56:59;;;;;;;4.55;2.10;;;22.40;48.60;;;;;;4050985;29;20047;-54
2022/11/03 07:59:35;;;;;;;4.72;1.30;;;22.30;48.60;;;;;;4057526;29;20036;-53
2022/11/03 08:01:58;;;;;;;3.53;1.48;;;22.30;48.60;;;;;;4054399;29;20401;-53
2022/11/03 08:04:24;;;;;;;4.50;1.17;;;22.30;48.70;;;;;;4055123;29;20048;-53
2022/11/03 08:06:47;;;;;;;3.00;1.00;;;22.30;48.80;;;;;;4052321;29;20497;-54
2022/11/03 08:09:09;;;;;;;5.20;1.45;;;22.20;48.80;;;;;;4052639;29;20046;-54
2022/11/03 08:11:32;;;;;;;3.83;1.63;;;22.20;48.80;;;;;;4055156;29;20043;-54
2022/11/03 08:13:54;;;;;;;6.85;1.50;;;22.20;48.90;;;;;;4056118;29;20119;-54
2022/11/03 08:16:18;;;;;;;3.13;1.10;;;22.20;49.00;;;;;;4057635;29;20044;-50
2022/11/03 08:18:40;;;;;;;2.13;0.90;;;22.10;48.90;;;;;;4051293;29;20704;-53
2022/11/03 08:21:03;;;;;;;4.10;1.55;;;22.10;48.90;;;;;;4055244;29;20052;-52
2022/11/03 08:23:25;;;;;;;3.33;1.20;;;22.10;48.90;;;;;;4057526;29;20084;-53
2022/11/03 08:25:48;;;;;;;2.30;0.98;;;22.10;49.00;;;;;;4050834;29;20406;-54
2022/11/03 08:28:10;;;;;;;2.72;1.40;;;22.10;49.00;;;;;;4049647;29;20040;-51
2022/11/03 08:30:33;;;;;;;3.97;1.23;;;22.00;48.90;;;;;;4052238;29;20043;-54
2022/11/03 08:32:55;;;;;;;2.47;1.15;;;22.00;49.00;;;;;;4049503;29;20786;-56
2022/11/03 08:35:18;;;;;;;3.53;1.20;;;22.00;49.00;;;;;;4050836;29;20071;-54
2022/11/03 08:37:40;;;;;;;3.03;1.13;;;22.00;49.00;;;;;;4051363;29;20040;-54
2022/11/03 08:40:03;;;;;;;3.47;1.40;;;22.00;49.00;;;;;;4050708;29;20134;-52
2022/11/03 08:42:26;;;;;;;1.95;1.08;;;22.00;49.10;;;;;;4050922;29;20062;-53
2022/11/03 08:44:48;;;;;;;2.70;1.20;;;21.90;49.10;;;;;;4051728;29;20465;-55
2022/11/03 08:47:10;;;;;;;4.63;1.45;;;21.90;49.20;;;;;;4051597;29;20078;-55
2022/11/03 08:49:33;;;;;;;4.97;1.27;;;21.90;49.20;;;;;;4053019;29;20036;-54
2022/11/03 08:51:55;;;;;;;6.07;1.48;;;21.90;49.30;;;;;;4054477;29;20112;-54
2022/11/03 08:54:18;;;;;;;5.63;1.73;;;21.80;49.30;;;;;;4051503;29;20404;-56
2022/11/03 08:56:40;;;;;;;3.05;1.20;;;21.80;49.40;;;;;;4055387;29;20032;-55
2022/11/03 08:59:03;;;;;;;3.03;1.63;;;21.80;49.40;;;;;;4051867;29;20035;-52
2022/11/03 09:01:26;;;;;;;3.55;1.20;;;21.70;49.60;;;;;;4050988;29;20099;-53
2022/11/03 09:03:48;;;;;;;2.65;1.10;;;21.70;49.60;;;;;;4050767;29;20040;-54
2022/11/03 09:06:11;;;;;;;4.13;1.15;;;21.70;49.70;;;;;;4048638;29;20124;-55
2022/11/03 09:08:33;;;;;;;3.38;1.15;;;21.60;49.70;;;;;;4050710;29;20405;-51
2022/11/03 09:10:56;;;;;;;3.63;0.93;;;21.60;49.90;;;;;;4050653;29;20048;-53
2022/11/03 09:13:18;;;;;;;4.32;1.50;;;21.60;50.00;;;;;;4050362;29;20072;-52
2022/11/03 09:15:41;;;;;;;3.58;1.10;;;21.60;50.00;;;;;;4050872;29;20039;-51
2022/11/03 09:18:03;;;;;;;3.20;1.38;;;21.50;50.10;;;;;;4052841;29;20048;-55
2022/11/03 09:20:26;;;;;;;2.63;1.17;;;21.50;50.20;;;;;;4049700;29;20099;-54
2022/11/03 09:22:49;;;;;;;4.30;1.35;;;21.50;50.30;;;;;;4051745;29;20089;-53
2022/11/03 09:25:11;;;;;;;3.72;1.08;;;21.50;50.40;;;;;;4048687;29;20056;-54
2022/11/03 09:27:34;;;;;;;3.90;1.27;;;21.50;50.50;;;;;;4052952;29;20051;-50
2022/11/03 09:29:56;;;;;;;2.63;1.08;;;21.50;50.60;;;;;;4050997;29;20043;-53
2022/11/03 09:32:19;;;;;;;5.35;1.42;;;21.40;50.60;;;;;;4048098;29;20124;-54
2022/11/03 09:34:42;;;;;;;4.55;1.45;;;21.40;50.70;;;;;;4051425;29;20036;-53
2022/11/03 09:37:04;;;;;;;2.20;1.15;;;21.40;50.70;;;;;;4053280;29;20056;-53
2022/11/03 09:39:28;;;;;;;1.88;0.93;;;21.40;50.90;;;;;;4051828;29;20044;-56
2022/11/03 09:41:52;;;;;;;3.20;1.37;;;21.40;50.90;;;;;;4048697;29;20051;-55
2022/11/03 09:44:14;;;;;;;;;;;21.40;50.90;;;;;;4048652;29;20222;-56
2022/11/03 09:46:36;;;;;;;3.30;1.50;;;21.30;51.00;;;;;;4051958;29;20203;-52
2022/11/03 09:48:59;;;;;;;4.65;1.27;;;21.30;51.00;;;;;;4053740;29;20460;-51
2022/11/03 09:51:23;;;;;;;3.90;1.30;;;21.30;51.10;;;;;;4053020;29;20937;-50
2022/11/03 09:53:46;;;;;;;3.20;1.40;;;21.30;51.10;;;;;;4054199;29;20067;-51
2022/11/03 09:56:10;;;;;;;3.00;1.50;;;21.30;51.10;;;;;;4052845;29;20048;-52
2022/11/03 09:58:33;;;;;;;3.38;1.40;;;21.30;51.20;;;;;;4051263;29;20500;-51
2022/11/03 10:00:55;;;;;;;3.67;1.55;;;21.20;51.10;;;;;;4052764;29;20048;-51
2022/11/03 10:03:19;;;;;;;4.57;1.65;;;21.20;51.20;;;;;;4052761;29;20511;-53
2022/11/03 10:05:46;;;;;;;2.70;1.38;;;21.20;51.30;;;;;;4051419;29;20111;-55
2022/11/03 10:08:29;;;;;;;4.57;1.30;;;21.20;51.90;;;;;;4049803;29;20051;-54
2022/11/03 10:10:52;;;;;;;3.63;1.10;;;21.20;51.30;;;;;;4049057;29;20040;-54
2022/11/03 10:13:43;;;;;;;5.60;1.53;;;21.20;51.30;;;;;;4050726;29;20108;-51
2022/11/03 10:16:08;;;;;;;2.25;0.95;;;21.20;51.30;;;;;;4047523;29;20052;-51
2022/11/03 10:18:31;;;;;;;2.63;1.23;;;21.10;51.30;;;;;;4052074;29;20400;-54
2022/11/03 10:20:54;;;;;;;3.45;1.08;;;21.10;51.30;;;;;;4051355;29;20059;-54
2022/11/03 10:23:17;;;;;;;3.08;1.38;;;21.10;51.40;;;;;;4050851;29;20067;-54
2022/11/03 10:25:41;;;;;;;4.30;1.27;;;21.10;51.40;;;;;;4053497;29;20411;-52
2022/11/03 10:28:26;;;;;;;3.80;1.13;;;21.10;51.40;;;;;;4054594;29;20381;-52
2022/11/03 10:31:01;;;;;;;3.33;1.52;;;21.10;51.50;;;;;;4053775;29;20123;-54
2022/11/03 10:33:36;;;;;;;;;;;21.10;51.70;;;;;;4052371;29;20036;-56
2022/11/03 10:36:12;;;;;;;3.08;1.25;;;21.10;51.70;;;;;;4055979;29;19910;-55
2022/11/03 10:38:35;;;;;;;3.30;1.40;;;21.10;51.80;;;;;;4054564;29;20040;-51
2022/11/03 10:41:21;;;;;;;3.40;1.40;;;21.00;51.90;;;;;;4055553;29;20051;-52
2022/11/03 10:43:45;;;;;;;3.90;1.63;;;21.10;52.00;;;;;;4053204;29;20055;-55
2022/11/03 10:46:12;;;;;;;4.20;1.35;;;21.00;52.10;;;;;;4054286;29;20433;-52
2022/11/03 10:48:34;;;;;;;2.60;1.10;;;21.00;52.20;;;;;;4054095;29;20391;-53
2022/11/03 10:50:57;;;;;;;3.95;1.40;;;21.00;52.30;;;;;;4055159;29;20040;-55
2022/11/03 10:53:20;;;;;;;2.75;1.05;;;21.00;52.30;;;;;;4052913;29;20047;-53
2022/11/03 10:55:43;;;;;;;4.90;1.57;;;21.00;52.40;;;;;;4053506;29;20096;-52
2022/11/03 10:58:06;;;;;;;4.32;1.58;;;21.00;52.50;;;;;;4051703;29;20051;-55
2022/11/03 11:00:28;;;;;;;3.72;1.30;;;21.00;52.60;;;;;;4053477;29;20134;-50
2022/11/03 11:02:57;;;;;;;2.80;1.17;;;20.90;52.60;;;;;;4053960;29;20424;-54
2022/11/03 11:05:23;;;;;;;3.22;1.10;;;20.90;52.60;;;;;;4052295;29;20086;-55
2022/11/03 11:07:46;;;;;;;2.70;1.30;;;20.90;52.70;;;;;;4055124;29;20139;-55
2022/11/03 11:10:18;;;;;;;4.28;1.30;;;20.90;52.80;;;;;;4052980;29;20052;-52
2022/11/03 11:13:04;;;;;;;3.08;1.30;;;20.90;52.90;;;;;;4055063;29;20127;-54
2022/11/03 11:15:39;;;;;;;4.45;1.17;;;20.90;52.90;;;;;;4053494;29;20123;-55
2022/11/03 11:18:02;;;;;;;5.18;1.27;;;20.90;52.90;;;;;;4056860;29;20381;-54
2022/11/03 11:20:32;;;;;;;3.17;1.25;;;20.90;52.90;;;;;;4049998;29;20071;-55
2022/11/03 11:22:55;;;;;;;5.07;1.23;;;20.90;53.00;;;;;;4053850;29;20037;-54
2022/11/03 11:25:18;;;;;;;3.50;1.30;;;20.90;53.00;;;;;;4050283;29;20159;-52
2022/11/03 11:27:44;;;;;;;2.72;1.00;;;20.80;53.00;;;;;;4057153;29;20036;-55
2022/11/03 11:30:20;;;;;;;4.05;1.85;;;20.90;53.10;;;;;;4052698;29;20092;-49
2022/11/03 11:32:42;;;;;;;5.82;1.60;;;20.80;53.10;;;;;;4049038;29;20039;-52
2022/11/03 11:35:09;;;;;;;3.50;1.13;;;20.80;53.00;;;;;;4050634;29;20048;-48
2022/11/03 11:37:33;;;;;;;3.65;1.13;;;20.80;53.20;;;;;;4048144;29;20044;-51
2022/11/03 11:39:55;;;;;;;;;;;20.80;53.30;;;;;;4047788;29;20051;-46
2022/11/03 11:42:21;;;;;;;2.45;1.00;;;20.80;53.40;;;;;;4056198;29;19922;-51
2022/11/03 11:44:50;;;;;;;11.32;2.60;;;20.80;53.50;;;;;;4052692;29;20100;-50
2022/11/03 11:47:28;;;;;;;6.20;2.00;;;20.80;53.80;;;;;;4052125;29;20524;-48
2022/11/03 11:50:28;;;;;;;6.20;1.65;;;20.80;54.10;;;;;;4052926;29;20063;-47
2022/11/03 11:53:11;;;;;;;9.63;1.38;;;20.90;54.30;;;;;;4052094;29;20032;-53
2022/11/03 11:55:56;;;;;;;7.90;1.48;;;20.90;54.40;;;;;;4052054;29;20416;-46
2022/11/03 11:58:46;;;;;;;2.92;0.98;;;20.90;54.40;;;;;;4051576;29;20046;-47
2022/11/03 12:01:32;;;;;;;4.38;1.17;;;20.90;54.40;;;;;;4052711;29;20048;-48
2022/11/03 12:03:58;;;;;;;3.13;0.90;;;21.00;54.30;;;;;;4050145;29;20040;-49
2022/11/03 12:06:36;;;;;;;3.80;0.98;;;21.00;55.00;;;;;;4051636;29;20060;-49
2022/11/03 12:09:11;;;;;;;7.93;0.88;;;21.00;54.30;;;;;;4046795;29;20044;-48
2022/11/03 12:11:42;;;;;;;3.20;0.73;;;21.10;54.30;;;;;;4052227;29;20419;-52
2022/11/03 12:14:19;;;;;;;4.82;0.80;;;21.00;54.20;;;;;;4052897;29;20048;-48
2022/11/03 12:16:42;;;;;;;2.80;1.00;;;21.10;54.30;;;;;;4052002;29;20044;-49
2022/11/03 12:19:33;;;;;;;3.10;1.00;;;21.10;54.30;;;;;;4048058;29;20713;-50
2022/11/03 12:21:56;;;;;;;6.63;1.45;;;21.10;54.30;;;;;;4053381;29;20055;-50
2022/11/03 12:24:35;;;;;;;3.38;0.80;;;21.10;54.40;;;;;;4049530;29;20049;-50
2022/11/03 12:26:59;;;;;;;4.20;1.23;;;21.10;54.30;;;;;;4048508;29;20059;-51
2022/11/03 12:29:22;;;;;;;2.97;0.80;;;21.10;54.40;;;;;;4049238;29;20129;-50
2022/11/03 12:31:47;;;;;;;2.72;0.68;;;21.10;54.30;;;;;;4051099;29;20460;-49
2022/11/03 12:34:09;;;;;;;2.63;0.93;;;21.10;54.40;;;;;;4049318;29;20047;-48
2022/11/03 12:36:32;;;;;;;4.05;1.00;;;21.10;54.40;;;;;;4047498;29;20048;-49
2022/11/03 12:38:54;;;;;;;2.83;0.70;;;21.00;54.40;;;;;;4054196;29;20047;-46
2022/11/03 12:41:20;;;;;;;2.20;0.90;;;21.10;54.50;;;;;;4052121;29;20050;-49
2022/11/03 12:43:42;;;;;;;0.90;0.65;;;21.10;54.40;;;;;;4046241;29;20080;-47
2022/11/03 12:46:05;;;;;;;2.13;0.68;;;21.00;54.50;;;;;;4045375;29;20068;-48
2022/11/03 12:48:27;;;;;;;2.95;0.90;;;21.00;54.50;;;;;;4053451;29;20112;-46
2022/11/03 12:50:50;;;;;;;5.38;0.93;;;21.00;54.60;;;;;;4049520;29;20064;-53
2022/11/03 12:53:12;;;;;;;3.13;1.00;;;21.00;54.80;;;;;;4050353;29;20429;-49
2022/11/03 12:55:35;;;;;;;5.32;0.88;;;21.00;55.00;;;;;;4051270;29;20350;-47
2022/11/03 12:57:58;;;;;;;3.75;1.08;;;21.00;54.90;;;;;;4049120;29;20758;-51
2022/11/03 13:00:20;;;;;;;2.28;0.88;;;21.00;55.00;;;;;;4047542;29;20610;-50
2022/11/03 13:02:43;;;;;;;5.10;0.90;;;21.00;55.00;;;;;;4050958;29;20048;-51
2022/11/03 13:05:06;;;;;;;2.00;0.70;;;21.00;55.00;;;;;;4046433;29;20052;-48